sensor_id;sensor_type;location;lat;lon;timestamp;temperature;humidity
50162;DHT22;36061;48.116;11.612;2022-12-18T00:01:43;-3.50;99.90
50162;DHT22;36061;48.116;11.612;2022-12-18T00:04:24;-3.50;99.90
50162;DHT22;36061;48.116;11.612;2022-12-18T00:06:50;-3.50;99.90
50162;DHT22;36061;48.116;11.612;2022-12-18T00:09:16;-3.50;99.90
50162;DHT22;36061;48.116;11.612;2022-12-18T00:11:42;-3.60;99.90
50162;DHT22;36061;48.116;11.612;2022-12-18T00:14:10;-3.50;99.90
50162;DHT22;36061;48.116;11.612;2022-12-18T00:16:36;-3.50;99.90
50162;DHT22;36061;48.116;11.612;2022-12-18T00:19:03;-3.50;99.90
50162;DHT22;36061;48.116;11.612;2022-12-18T00:21:31;-3.60;99.90
50162;DHT22;36061;48.116;11.612;2022-12-18T00:23:59;-3.60;99.90
50162;DHT22;36061;48.116;11.612;2022-12-18T00:26:30;-3.60;99.90
50162;DHT22;36061;48.116;11.612;2022-12-18T00:29:09;-3.60;99.90
50162;DHT22;36061;48.116;11.612;2022-12-18T00:31:36;-3.60;99.90
50162;DHT22;36061;48.116;11.612;2022-12-18T00:34:03;-3.60;99.90
50162;DHT22;36061;48.116;11.612;2022-12-18T00:36:34;-3.60;99.90
50162;DHT22;36061;48.116;11.612;2022-12-18T00:39:02;-3.60;99.90
50162;DHT22;36061;48.116;11.612;2022-12-18T00:41:28;-3.60;99.90
50162;DHT22;36061;48.116;11.612;2022-12-18T00:44:15;-3.50;99.90
50162;DHT22;36061;48.116;11.612;2022-12-18T00:46:42;-3.50;99.90
50162;DHT22;36061;48.116;11.612;2022-12-18T00:49:09;-3.50;99.90
50162;DHT22;36061;48.116;11.612;2022-12-18T00:51:38;-3.50;99.90
50162;DHT22;36061;48.116;11.612;2022-12-18T00:54:05;-3.60;99.90
50162;DHT22;36061;48.116;11.612;2022-12-18T00:56:31;-3.50;99.90
50162;DHT22;36061;48.116;11.612;2022-12-18T00:58:57;-3.50;99.90
50162;DHT22;36061;48.116;11.612;2022-12-18T01:01:23;-3.50;99.90
50162;DHT22;36061;48.116;11.612;2022-12-18T01:03:48;-3.50;99.90
50162;DHT22;36061;48.116;11.612;2022-12-18T01:06:16;-3.50;99.90
50162;DHT22;36061;48.116;11.612;2022-12-18T01:08:42;-3.40;99.90
50162;DHT22;36061;48.116;11.612;2022-12-18T01:11:14;-3.50;99.90
50162;DHT22;36061;48.116;11.612;2022-12-18T01:13:41;-3.50;99.90
50162;DHT22;36061;48.116;11.612;2022-12-18T01:16:06;-3.40;99.90
50162;DHT22;36061;48.116;11.612;2022-12-18T01:18:34;-3.60;99.90
50162;DHT22;36061;48.116;11.612;2022-12-18T01:21:00;-3.60;99.90
50162;DHT22;36061;48.116;11.612;2022-12-18T01:23:26;-3.60;99.90
50162;DHT22;36061;48.116;11.612;2022-12-18T01:25:52;-3.60;99.90
50162;DHT22;36061;48.116;11.612;2022-12-18T01:28:18;-3.60;99.90
50162;DHT22;36061;48.116;11.612;2022-12-18T01:30:44;-3.60;99.90
50162;DHT22;36061;48.116;11.612;2022-12-18T01:33:09;-2.50;99.90
50162;DHT22;36061;48.116;11.612;2022-12-18T01:35:41;-3.60;99.90
50162;DHT22;36061;48.116;11.612;2022-12-18T01:38:07;-3.70;99.90
50162;DHT22;36061;48.116;11.612;2022-12-18T01:40:34;-3.30;99.90
50162;DHT22;36061;48.116;11.612;2022-12-18T01:43:00;-3.70;99.90
50162;DHT22;36061;48.116;11.612;2022-12-18T01:45:31;-3.70;99.90
50162;DHT22;36061;48.116;11.612;2022-12-18T01:48:06;-3.60;99.90
50162;DHT22;36061;48.116;11.612;2022-12-18T01:53:02;-3.70;99.90
50162;DHT22;36061;48.116;11.612;2022-12-18T01:55:31;-3.70;99.90
50162;DHT22;36061;48.116;11.612;2022-12-18T01:57:59;-3.70;99.90
50162;DHT22;36061;48.116;11.612;2022-12-18T02:00:26;-3.60;99.90
50162;DHT22;36061;48.116;11.612;2022-12-18T02:02:52;-3.60;99.90
50162;DHT22;36061;48.116;11.612;2022-12-18T02:05:57;-3.60;99.90
50162;DHT22;36061;48.116;11.612;2022-12-18T02:08:34;-3.70;99.90
50162;DHT22;36061;48.116;11.612;2022-12-18T02:14:04;-3.70;99.90
50162;DHT22;36061;48.116;11.612;2022-12-18T02:25:00;-3.60;99.90
50162;DHT22;36061;48.116;11.612;2022-12-18T02:27:28;-3.70;99.90
50162;DHT22;36061;48.116;11.612;2022-12-18T02:29:55;-3.70;99.90
50162;DHT22;36061;48.116;11.612;2022-12-18T02:32:28;-3.70;99.90
50162;DHT22;36061;48.116;11.612;2022-12-18T02:34:57;-3.80;99.90
50162;DHT22;36061;48.116;11.612;2022-12-18T02:37:26;-3.70;99.90
50162;DHT22;36061;48.116;11.612;2022-12-18T02:39:55;-3.70;99.90
50162;DHT22;36061;48.116;11.612;2022-12-18T02:42:23;-3.70;99.90
50162;DHT22;36061;48.116;11.612;2022-12-18T02:44:50;-3.70;99.90
50162;DHT22;36061;48.116;11.612;2022-12-18T02:47:23;-3.70;99.90
50162;DHT22;36061;48.116;11.612;2022-12-18T02:56:09;-3.60;99.90
50162;DHT22;36061;48.116;11.612;2022-12-18T03:01:31;-3.60;99.90
50162;DHT22;36061;48.116;11.612;2022-12-18T03:04:04;-3.70;99.90
50162;DHT22;36061;48.116;11.612;2022-12-18T03:06:39;-3.70;99.90
50162;DHT22;36061;48.116;11.612;2022-12-18T03:09:14;-4.10;99.90
50162;DHT22;36061;48.116;11.612;2022-12-18T03:11:44;-3.70;99.90
50162;DHT22;36061;48.116;11.612;2022-12-18T03:14:30;-3.70;99.90
50162;DHT22;36061;48.116;11.612;2022-12-18T03:17:00;-3.70;99.90
50162;DHT22;36061;48.116;11.612;2022-12-18T03:19:29;-3.60;99.90
50162;DHT22;36061;48.116;11.612;2022-12-18T03:22:00;-3.60;99.90
50162;DHT22;36061;48.116;11.612;2022-12-18T03:24:33;-3.50;99.90
50162;DHT22;36061;48.116;11.612;2022-12-18T03:27:06;-3.60;99.90
50162;DHT22;36061;48.116;11.612;2022-12-18T03:29:48;-3.60;99.90
50162;DHT22;36061;48.116;11.612;2022-12-18T03:32:25;-3.60;99.90
50162;DHT22;36061;48.116;11.612;2022-12-18T03:34:57;-3.60;99.90
50162;DHT22;36061;48.116;11.612;2022-12-18T03:37:28;-3.60;99.90
50162;DHT22;36061;48.116;11.612;2022-12-18T03:39:54;-3.60;99.90
50162;DHT22;36061;48.116;11.612;2022-12-18T03:42:29;-3.60;99.90
50162;DHT22;36061;48.116;11.612;2022-12-18T03:45:13;-3.60;99.90
50162;DHT22;36061;48.116;11.612;2022-12-18T03:47:52;-3.70;99.90
50162;DHT22;36061;48.116;11.612;2022-12-18T03:50:39;-3.60;99.90
50162;DHT22;36061;48.116;11.612;2022-12-18T03:53:13;-3.60;99.90
50162;DHT22;36061;48.116;11.612;2022-12-18T03:55:41;-3.60;99.90
50162;DHT22;36061;48.116;11.612;2022-12-18T03:58:10;-3.60;99.90
50162;DHT22;36061;48.116;11.612;2022-12-18T04:00:51;-3.70;99.90
50162;DHT22;36061;48.116;11.612;2022-12-18T04:03:20;-3.70;99.90
50162;DHT22;36061;48.116;11.612;2022-12-18T04:05:50;-3.70;99.90
50162;DHT22;36061;48.116;11.612;2022-12-18T04:08:19;-3.80;99.90
50162;DHT22;36061;48.116;11.612;2022-12-18T04:10:54;-3.80;99.90
50162;DHT22;36061;48.116;11.612;2022-12-18T04:13:28;-3.80;99.90
50162;DHT22;36061;48.116;11.612;2022-12-18T04:15:55;-3.70;99.90
50162;DHT22;36061;48.116;11.612;2022-12-18T04:18:23;-3.70;99.90
50162;DHT22;36061;48.116;11.612;2022-12-18T04:20:48;-3.70;99.90
50162;DHT22;36061;48.116;11.612;2022-12-18T04:23:16;-3.70;99.90
50162;DHT22;36061;48.116;11.612;2022-12-18T04:25:42;-3.80;99.90
50162;DHT22;36061;48.116;11.612;2022-12-18T04:28:12;-3.80;99.90
50162;DHT22;36061;48.116;11.612;2022-12-18T04:30:38;-3.70;99.90
50162;DHT22;36061;48.116;11.612;2022-12-18T04:33:12;-3.70;99.90
50162;DHT22;36061;48.116;11.612;2022-12-18T04:35:39;-3.70;99.90
50162;DHT22;36061;48.116;11.612;2022-12-18T04:38:07;-3.70;99.90
50162;DHT22;36061;48.116;11.612;2022-12-18T04:40:36;-3.60;99.90
50162;DHT22;36061;48.116;11.612;2022-12-18T04:43:05;-3.60;99.90
50162;DHT22;36061;48.116;11.612;2022-12-18T04:45:31;-3.60;99.90
50162;DHT22;36061;48.116;11.612;2022-12-18T04:48:02;-3.60;99.90
50162;DHT22;36061;48.116;11.612;2022-12-18T04:50:28;-3.60;99.90
50162;DHT22;36061;48.116;11.612;2022-12-18T04:52:54;-3.60;99.90
50162;DHT22;36061;48.116;11.612;2022-12-18T04:55:20;-3.60;99.90
50162;DHT22;36061;48.116;11.612;2022-12-18T04:57:46;-3.60;99.90
50162;DHT22;36061;48.116;11.612;2022-12-18T05:00:12;-3.60;99.90
50162;DHT22;36061;48.116;11.612;2022-12-18T05:02:38;-3.60;99.90
50162;DHT22;36061;48.116;11.612;2022-12-18T05:05:04;-3.60;99.90
50162;DHT22;36061;48.116;11.612;2022-12-18T05:07:30;-3.60;99.90
50162;DHT22;36061;48.116;11.612;2022-12-18T05:09:56;-3.50;99.90
50162;DHT22;36061;48.116;11.612;2022-12-18T05:12:22;-3.60;99.90
50162;DHT22;36061;48.116;11.612;2022-12-18T05:14:47;-3.60;99.90
50162;DHT22;36061;48.116;11.612;2022-12-18T05:17:13;-3.60;99.90
50162;DHT22;36061;48.116;11.612;2022-12-18T05:19:39;-3.70;99.90
50162;DHT22;36061;48.116;11.612;2022-12-18T05:22:05;-3.60;99.90
50162;DHT22;36061;48.116;11.612;2022-12-18T05:24:30;-3.60;99.90
50162;DHT22;36061;48.116;11.612;2022-12-18T05:26:56;-3.60;99.90
50162;DHT22;36061;48.116;11.612;2022-12-18T05:29:22;-3.60;99.90
50162;DHT22;36061;48.116;11.612;2022-12-18T05:31:48;-3.50;99.90
50162;DHT22;36061;48.116;11.612;2022-12-18T05:34:13;-3.50;99.90
50162;DHT22;36061;48.116;11.612;2022-12-18T05:36:39;-3.50;99.90
50162;DHT22;36061;48.116;11.612;2022-12-18T05:39:05;-3.60;99.90
50162;DHT22;36061;48.116;11.612;2022-12-18T05:41:31;-3.60;99.90
50162;DHT22;36061;48.116;11.612;2022-12-18T05:43:58;-3.60;99.90
50162;DHT22;36061;48.116;11.612;2022-12-18T05:46:24;-3.60;99.90
50162;DHT22;36061;48.116;11.612;2022-12-18T05:48:50;-3.60;99.90
50162;DHT22;36061;48.116;11.612;2022-12-18T05:51:18;-3.60;99.90
50162;DHT22;36061;48.116;11.612;2022-12-18T05:53:44;-3.60;99.90
50162;DHT22;36061;48.116;11.612;2022-12-18T05:56:13;-3.60;99.90
50162;DHT22;36061;48.116;11.612;2022-12-18T05:58:40;-3.60;99.90
50162;DHT22;36061;48.116;11.612;2022-12-18T06:01:21;-3.60;99.90
50162;DHT22;36061;48.116;11.612;2022-12-18T06:03:47;-3.60;99.90
50162;DHT22;36061;48.116;11.612;2022-12-18T06:06:19;-3.60;99.90
50162;DHT22;36061;48.116;11.612;2022-12-18T06:08:45;-3.60;99.90
50162;DHT22;36061;48.116;11.612;2022-12-18T06:11:11;-3.60;99.90
50162;DHT22;36061;48.116;11.612;2022-12-18T06:13:37;-3.60;99.90
50162;DHT22;36061;48.116;11.612;2022-12-18T06:16:06;-3.50;99.90
50162;DHT22;36061;48.116;11.612;2022-12-18T06:18:34;-3.50;99.90
50162;DHT22;36061;48.116;11.612;2022-12-18T06:21:00;-3.60;99.90
50162;DHT22;36061;48.116;11.612;2022-12-18T06:23:26;-3.60;99.90
50162;DHT22;36061;48.116;11.612;2022-12-18T06:25:52;-3.60;99.90
50162;DHT22;36061;48.116;11.612;2022-12-18T06:28:18;-3.70;99.90
50162;DHT22;36061;48.116;11.612;2022-12-18T06:30:45;-3.70;99.90
50162;DHT22;36061;48.116;11.612;2022-12-18T06:33:11;-3.60;99.90
50162;DHT22;36061;48.116;11.612;2022-12-18T06:35:37;-3.70;99.90
50162;DHT22;36061;48.116;11.612;2022-12-18T06:38:03;-3.70;99.90
50162;DHT22;36061;48.116;11.612;2022-12-18T06:40:29;-3.70;99.90
50162;DHT22;36061;48.116;11.612;2022-12-18T06:42:55;-3.70;99.90
50162;DHT22;36061;48.116;11.612;2022-12-18T06:45:21;-3.70;99.90
50162;DHT22;36061;48.116;11.612;2022-12-18T06:47:46;-3.70;99.90
50162;DHT22;36061;48.116;11.612;2022-12-18T06:50:13;-3.70;99.90
50162;DHT22;36061;48.116;11.612;2022-12-18T06:52:39;-3.70;99.90
50162;DHT22;36061;48.116;11.612;2022-12-18T06:55:10;-3.70;99.90
50162;DHT22;36061;48.116;11.612;2022-12-18T06:57:36;-3.80;99.90
50162;DHT22;36061;48.116;11.612;2022-12-18T07:00:04;-3.80;99.90
50162;DHT22;36061;48.116;11.612;2022-12-18T07:02:31;-3.80;99.90
50162;DHT22;36061;48.116;11.612;2022-12-18T07:04:57;-3.80;99.90
50162;DHT22;36061;48.116;11.612;2022-12-18T07:07:23;-3.80;99.90
50162;DHT22;36061;48.116;11.612;2022-12-18T07:09:50;-3.80;99.90
50162;DHT22;36061;48.116;11.612;2022-12-18T07:12:15;-3.80;99.90
50162;DHT22;36061;48.116;11.612;2022-12-18T07:14:41;-3.90;99.90
50162;DHT22;36061;48.116;11.612;2022-12-18T07:17:07;-3.80;99.90
50162;DHT22;36061;48.116;11.612;2022-12-18T07:19:33;-3.80;99.90
50162;DHT22;36061;48.116;11.612;2022-12-18T07:21:59;-3.80;99.90
50162;DHT22;36061;48.116;11.612;2022-12-18T07:24:25;-3.80;99.90
50162;DHT22;36061;48.116;11.612;2022-12-18T07:26:50;-3.80;99.90
50162;DHT22;36061;48.116;11.612;2022-12-18T07:29:16;-3.90;99.90
50162;DHT22;36061;48.116;11.612;2022-12-18T07:31:42;-3.90;99.90
50162;DHT22;36061;48.116;11.612;2022-12-18T07:34:12;-3.90;99.90
50162;DHT22;36061;48.116;11.612;2022-12-18T07:36:38;-3.90;99.90
50162;DHT22;36061;48.116;11.612;2022-12-18T07:39:04;-3.90;99.90
50162;DHT22;36061;48.116;11.612;2022-12-18T07:41:30;-3.90;99.90
50162;DHT22;36061;48.116;11.612;2022-12-18T07:43:58;-3.90;99.90
50162;DHT22;36061;48.116;11.612;2022-12-18T07:46:24;-3.80;99.90
50162;DHT22;36061;48.116;11.612;2022-12-18T07:48:50;-3.80;99.90
50162;DHT22;36061;48.116;11.612;2022-12-18T07:51:16;-3.80;99.90
50162;DHT22;36061;48.116;11.612;2022-12-18T07:53:43;-3.80;99.90
50162;DHT22;36061;48.116;11.612;2022-12-18T07:56:10;-3.80;99.90
50162;DHT22;36061;48.116;11.612;2022-12-18T07:58:36;-3.80;99.90
50162;DHT22;36061;48.116;11.612;2022-12-18T08:01:10;-3.80;99.90
50162;DHT22;36061;48.116;11.612;2022-12-18T08:03:37;-3.80;99.90
50162;DHT22;36061;48.116;11.612;2022-12-18T08:06:04;-3.80;99.90
50162;DHT22;36061;48.116;11.612;2022-12-18T08:08:31;-3.90;99.90
50162;DHT22;36061;48.116;11.612;2022-12-18T08:10:57;-3.80;99.90
50162;DHT22;36061;48.116;11.612;2022-12-18T08:13:24;-3.80;99.90
50162;DHT22;36061;48.116;11.612;2022-12-18T08:16:03;-3.80;99.90
50162;DHT22;36061;48.116;11.612;2022-12-18T08:18:32;-3.80;99.90
50162;DHT22;36061;48.116;11.612;2022-12-18T08:21:02;-3.80;99.90
50162;DHT22;36061;48.116;11.612;2022-12-18T08:23:32;-3.90;99.90
50162;DHT22;36061;48.116;11.612;2022-12-18T08:25:58;-3.80;99.90
50162;DHT22;36061;48.116;11.612;2022-12-18T08:28:24;-3.80;99.90
50162;DHT22;36061;48.116;11.612;2022-12-18T08:30:51;-3.70;99.90
50162;DHT22;36061;48.116;11.612;2022-12-18T08:33:17;-3.70;99.90
50162;DHT22;36061;48.116;11.612;2022-12-18T08:35:43;-3.70;99.90
50162;DHT22;36061;48.116;11.612;2022-12-18T08:38:09;-3.70;99.90
50162;DHT22;36061;48.116;11.612;2022-12-18T08:40:35;-3.70;99.90
50162;DHT22;36061;48.116;11.612;2022-12-18T08:43:00;-3.60;99.90
50162;DHT22;36061;48.116;11.612;2022-12-18T08:45:45;-3.60;99.90
50162;DHT22;36061;48.116;11.612;2022-12-18T08:48:10;-3.50;99.90
50162;DHT22;36061;48.116;11.612;2022-12-18T08:50:36;-3.50;99.90
50162;DHT22;36061;48.116;11.612;2022-12-18T08:53:02;-3.50;99.90
50162;DHT22;36061;48.116;11.612;2022-12-18T08:55:28;-3.50;99.90
50162;DHT22;36061;48.116;11.612;2022-12-18T08:57:54;-3.50;99.90
50162;DHT22;36061;48.116;11.612;2022-12-18T09:00:19;-2.40;99.90
50162;DHT22;36061;48.116;11.612;2022-12-18T09:02:45;-0.80;99.90
50162;DHT22;36061;48.116;11.612;2022-12-18T09:05:11;0.90;99.90
50162;DHT22;36061;48.116;11.612;2022-12-18T09:07:37;2.50;99.90
50162;DHT22;36061;48.116;11.612;2022-12-18T09:10:03;3.40;99.90
50162;DHT22;36061;48.116;11.612;2022-12-18T09:12:29;3.20;99.90
50162;DHT22;36061;48.116;11.612;2022-12-18T09:14:55;2.30;99.90
50162;DHT22;36061;48.116;11.612;2022-12-18T09:17:22;1.30;99.90
50162;DHT22;36061;48.116;11.612;2022-12-18T09:19:47;0.30;99.90
50162;DHT22;36061;48.116;11.612;2022-12-18T09:22:13;-0.50;99.90
50162;DHT22;36061;48.116;11.612;2022-12-18T09:24:39;-1.10;99.90
50162;DHT22;36061;48.116;11.612;2022-12-18T09:27:05;-1.50;99.90
50162;DHT22;36061;48.116;11.612;2022-12-18T09:29:31;-1.90;99.90
50162;DHT22;36061;48.116;11.612;2022-12-18T09:31:57;-2.20;99.90
50162;DHT22;36061;48.116;11.612;2022-12-18T09:34:23;-2.40;99.90
50162;DHT22;36061;48.116;11.612;2022-12-18T09:36:49;-2.60;99.90
50162;DHT22;36061;48.116;11.612;2022-12-18T09:39:15;-2.70;99.90
50162;DHT22;36061;48.116;11.612;2022-12-18T09:41:52;-2.80;99.90
50162;DHT22;36061;48.116;11.612;2022-12-18T09:44:26;-2.90;99.90
50162;DHT22;36061;48.116;11.612;2022-12-18T09:47:02;-3.00;99.90
50162;DHT22;36061;48.116;11.612;2022-12-18T09:49:35;-3.00;99.90
50162;DHT22;36061;48.116;11.612;2022-12-18T09:52:09;-3.00;99.90
50162;DHT22;36061;48.116;11.612;2022-12-18T09:57:31;-3.00;99.90
50162;DHT22;36061;48.116;11.612;2022-12-18T10:00:16;-3.00;99.90
50162;DHT22;36061;48.116;11.612;2022-12-18T10:02:44;-3.00;99.90
50162;DHT22;36061;48.116;11.612;2022-12-18T10:05:20;-3.10;99.90
50162;DHT22;36061;48.116;11.612;2022-12-18T10:08:10;-3.10;99.90
50162;DHT22;36061;48.116;11.612;2022-12-18T10:10:50;-3.00;99.90
50162;DHT22;36061;48.116;11.612;2022-12-18T10:19:02;-3.00;99.90
50162;DHT22;36061;48.116;11.612;2022-12-18T10:21:35;-3.00;99.90
50162;DHT22;36061;48.116;11.612;2022-12-18T10:27:12;-3.00;99.90
50162;DHT22;36061;48.116;11.612;2022-12-18T10:29:40;-3.00;99.90
50162;DHT22;36061;48.116;11.612;2022-12-18T10:32:07;-3.00;99.90
50162;DHT22;36061;48.116;11.612;2022-12-18T10:34:34;-3.10;99.90
50162;DHT22;36061;48.116;11.612;2022-12-18T10:37:06;-3.10;99.90
50162;DHT22;36061;48.116;11.612;2022-12-18T10:39:35;-3.10;99.90
50162;DHT22;36061;48.116;11.612;2022-12-18T10:42:11;-3.00;99.90
50162;DHT22;36061;48.116;11.612;2022-12-18T10:44:40;-3.00;99.90
50162;DHT22;36061;48.116;11.612;2022-12-18T10:47:12;-2.90;99.90
50162;DHT22;36061;48.116;11.612;2022-12-18T10:49:47;-2.90;99.90
50162;DHT22;36061;48.116;11.612;2022-12-18T10:52:23;-2.80;99.90
50162;DHT22;36061;48.116;11.612;2022-12-18T10:55:02;-2.70;99.90
50162;DHT22;36061;48.116;11.612;2022-12-18T10:57:30;-2.90;99.90
50162;DHT22;36061;48.116;11.612;2022-12-18T10:59:58;-2.90;99.90
50162;DHT22;36061;48.116;11.612;2022-12-18T11:02:35;-3.00;99.90
50162;DHT22;36061;48.116;11.612;2022-12-18T11:05:03;-3.00;99.90
50162;DHT22;36061;48.116;11.612;2022-12-18T11:08:03;-2.90;99.90
50162;DHT22;36061;48.116;11.612;2022-12-18T11:10:35;-2.80;99.90
50162;DHT22;36061;48.116;11.612;2022-12-18T11:13:18;-2.90;99.90
50162;DHT22;36061;48.116;11.612;2022-12-18T11:15:44;-2.90;99.90
50162;DHT22;36061;48.116;11.612;2022-12-18T11:18:29;-2.90;99.90
50162;DHT22;36061;48.116;11.612;2022-12-18T11:21:05;-2.80;99.90
50162;DHT22;36061;48.116;11.612;2022-12-18T11:23:31;-2.80;99.90
50162;DHT22;36061;48.116;11.612;2022-12-18T11:25:59;-2.80;99.90
50162;DHT22;36061;48.116;11.612;2022-12-18T11:36:38;-2.80;99.90
50162;DHT22;36061;48.116;11.612;2022-12-18T11:42:21;-2.80;99.90
50162;DHT22;36061;48.116;11.612;2022-12-18T11:50:24;-3.00;99.90
50162;DHT22;36061;48.116;11.612;2022-12-18T11:52:51;-3.00;99.90
50162;DHT22;36061;48.116;11.612;2022-12-18T11:55:30;-2.90;99.90
50162;DHT22;36061;48.116;11.612;2022-12-18T12:01:02;-3.00;99.90
50162;DHT22;36061;48.116;11.612;2022-12-18T12:09:20;-2.90;99.90
50162;DHT22;36061;48.116;11.612;2022-12-18T12:15:10;-2.80;99.90
50162;DHT22;36061;48.116;11.612;2022-12-18T12:17:44;-2.80;99.90
50162;DHT22;36061;48.116;11.612;2022-12-18T12:20:22;-2.80;99.90
50162;DHT22;36061;48.116;11.612;2022-12-18T12:25:37;-2.70;99.90
50162;DHT22;36061;48.116;11.612;2022-12-18T12:30:55;-2.80;99.90
50162;DHT22;36061;48.116;11.612;2022-12-18T12:36:33;-3.10;99.90
50162;DHT22;36061;48.116;11.612;2022-12-18T12:39:07;-3.00;99.90
50162;DHT22;36061;48.116;11.612;2022-12-18T12:41:37;-3.00;99.90
50162;DHT22;36061;48.116;11.612;2022-12-18T12:44:40;-3.00;99.90
50162;DHT22;36061;48.116;11.612;2022-12-18T12:47:25;-3.00;99.90
50162;DHT22;36061;48.116;11.612;2022-12-18T12:49:54;-2.90;99.90
50162;DHT22;36061;48.116;11.612;2022-12-18T12:54:55;-2.90;99.90
50162;DHT22;36061;48.116;11.612;2022-12-18T13:00:07;-2.90;99.90
50162;DHT22;36061;48.116;11.612;2022-12-18T13:08:05;-3.00;99.90
50162;DHT22;36061;48.116;11.612;2022-12-18T13:10:34;-3.00;99.90
50162;DHT22;36061;48.116;11.612;2022-12-18T13:13:05;-3.00;99.90
50162;DHT22;36061;48.116;11.612;2022-12-18T13:15:47;-3.00;99.90
50162;DHT22;36061;48.116;11.612;2022-12-18T13:30:59;-2.90;99.90
50162;DHT22;36061;48.116;11.612;2022-12-18T13:36:02;-2.90;99.90
50162;DHT22;36061;48.116;11.612;2022-12-18T13:43:29;-2.90;99.90
50162;DHT22;36061;48.116;11.612;2022-12-18T13:46:16;-2.90;99.90
50162;DHT22;36061;48.116;11.612;2022-12-18T13:51:21;-2.90;99.90
50162;DHT22;36061;48.116;11.612;2022-12-18T13:54:39;-2.90;99.90
50162;DHT22;36061;48.116;11.612;2022-12-18T13:56:43;-3.00;99.90
50162;DHT22;36061;48.116;11.612;2022-12-18T14:01:53;-3.10;99.90
50162;DHT22;36061;48.116;11.612;2022-12-18T14:04:30;-3.20;99.90
50162;DHT22;36061;48.116;11.612;2022-12-18T14:07:10;-2.20;99.90
50162;DHT22;36061;48.116;11.612;2022-12-18T14:09:47;-3.30;99.90
50162;DHT22;36061;48.116;11.612;2022-12-18T14:15:05;-3.30;99.90
50162;DHT22;36061;48.116;11.612;2022-12-18T14:17:31;-3.30;99.90
50162;DHT22;36061;48.116;11.612;2022-12-18T14:19:57;-3.30;99.90
50162;DHT22;36061;48.116;11.612;2022-12-18T14:22:25;-3.20;99.90
50162;DHT22;36061;48.116;11.612;2022-12-18T14:25:26;-3.20;99.90
50162;DHT22;36061;48.116;11.612;2022-12-18T14:28:14;-3.20;99.90
50162;DHT22;36061;48.116;11.612;2022-12-18T14:30:43;-3.20;99.90
50162;DHT22;36061;48.116;11.612;2022-12-18T14:33:24;-3.20;99.90
50162;DHT22;36061;48.116;11.612;2022-12-18T14:35:58;-3.30;99.90
50162;DHT22;36061;48.116;11.612;2022-12-18T14:38:34;-3.30;99.90
50162;DHT22;36061;48.116;11.612;2022-12-18T14:41:15;-3.30;99.90
50162;DHT22;36061;48.116;11.612;2022-12-18T14:43:46;-3.30;99.90
50162;DHT22;36061;48.116;11.612;2022-12-18T14:46:26;-3.30;99.90
50162;DHT22;36061;48.116;11.612;2022-12-18T14:48:53;-3.40;99.90
50162;DHT22;36061;48.116;11.612;2022-12-18T14:51:22;-3.30;99.90
50162;DHT22;36061;48.116;11.612;2022-12-18T14:54:05;-3.40;99.90
50162;DHT22;36061;48.116;11.612;2022-12-18T14:56:37;-3.40;99.90
50162;DHT22;36061;48.116;11.612;2022-12-18T14:59:19;-3.40;99.90
50162;DHT22;36061;48.116;11.612;2022-12-18T15:02:34;-3.40;99.90
50162;DHT22;36061;48.116;11.612;2022-12-18T15:09:40;-3.40;99.90
50162;DHT22;36061;48.116;11.612;2022-12-18T15:12:40;-3.40;99.90
50162;DHT22;36061;48.116;11.612;2022-12-18T15:20:54;-3.50;99.90
50162;DHT22;36061;48.116;11.612;2022-12-18T15:26:07;-3.50;99.90
50162;DHT22;36061;48.116;11.612;2022-12-18T15:28:48;-3.50;99.90
50162;DHT22;36061;48.116;11.612;2022-12-18T15:36:10;-3.60;99.90
50162;DHT22;36061;48.116;11.612;2022-12-18T15:38:36;-3.70;99.90
50162;DHT22;36061;48.116;11.612;2022-12-18T15:41:02;-3.80;99.90
50162;DHT22;36061;48.116;11.612;2022-12-18T15:43:33;-3.70;99.90
50162;DHT22;36061;48.116;11.612;2022-12-18T15:46:15;-3.60;99.90
50162;DHT22;36061;48.116;11.612;2022-12-18T15:48:44;-3.70;99.90
50162;DHT22;36061;48.116;11.612;2022-12-18T15:51:19;-3.70;99.90
50162;DHT22;36061;48.116;11.612;2022-12-18T15:53:50;-3.70;99.90
50162;DHT22;36061;48.116;11.612;2022-12-18T15:56:16;-3.60;99.90
50162;DHT22;36061;48.116;11.612;2022-12-18T15:59:14;-3.60;99.90
50162;DHT22;36061;48.116;11.612;2022-12-18T16:01:41;-3.60;99.90
50162;DHT22;36061;48.116;11.612;2022-12-18T16:04:08;-3.70;99.90
50162;DHT22;36061;48.116;11.612;2022-12-18T16:06:35;-3.70;99.90
50162;DHT22;36061;48.116;11.612;2022-12-18T16:09:00;-3.70;99.90
50162;DHT22;36061;48.116;11.612;2022-12-18T16:11:31;-3.60;99.90
50162;DHT22;36061;48.116;11.612;2022-12-18T16:16:35;-3.70;99.90
50162;DHT22;36061;48.116;11.612;2022-12-18T16:19:01;-3.80;99.90
50162;DHT22;36061;48.116;11.612;2022-12-18T16:21:26;-3.80;99.90
50162;DHT22;36061;48.116;11.612;2022-12-18T16:23:52;-3.80;99.90
50162;DHT22;36061;48.116;11.612;2022-12-18T16:26:18;-3.80;99.90
50162;DHT22;36061;48.116;11.612;2022-12-18T16:28:43;-3.70;99.90
50162;DHT22;36061;48.116;11.612;2022-12-18T16:31:09;-3.70;99.90
50162;DHT22;36061;48.116;11.612;2022-12-18T16:33:35;-3.80;99.90
50162;DHT22;36061;48.116;11.612;2022-12-18T16:36:01;-3.90;99.90
50162;DHT22;36061;48.116;11.612;2022-12-18T16:38:27;-3.80;99.90
50162;DHT22;36061;48.116;11.612;2022-12-18T16:40:53;-3.90;99.90
50162;DHT22;36061;48.116;11.612;2022-12-18T16:43:37;-3.90;99.90
50162;DHT22;36061;48.116;11.612;2022-12-18T16:46:03;-3.90;99.90
50162;DHT22;36061;48.116;11.612;2022-12-18T16:48:29;-3.90;99.90
50162;DHT22;36061;48.116;11.612;2022-12-18T16:51:03;-3.90;99.90
50162;DHT22;36061;48.116;11.612;2022-12-18T16:53:30;-3.80;99.90
50162;DHT22;36061;48.116;11.612;2022-12-18T16:55:57;-3.80;99.90
50162;DHT22;36061;48.116;11.612;2022-12-18T16:58:23;-3.90;99.90
50162;DHT22;36061;48.116;11.612;2022-12-18T17:00:49;-3.80;99.90
50162;DHT22;36061;48.116;11.612;2022-12-18T17:03:15;-3.80;99.90
50162;DHT22;36061;48.116;11.612;2022-12-18T17:05:40;-3.80;99.90
50162;DHT22;36061;48.116;11.612;2022-12-18T17:08:06;-3.80;99.90
50162;DHT22;36061;48.116;11.612;2022-12-18T17:10:34;-3.80;99.90
50162;DHT22;36061;48.116;11.612;2022-12-18T17:13:00;-3.70;99.90
50162;DHT22;36061;48.116;11.612;2022-12-18T17:15:26;-3.80;99.90
50162;DHT22;36061;48.116;11.612;2022-12-18T17:17:52;-3.80;99.90
50162;DHT22;36061;48.116;11.612;2022-12-18T17:20:17;-3.90;99.90
50162;DHT22;36061;48.116;11.612;2022-12-18T17:22:43;-3.90;99.90
50162;DHT22;36061;48.116;11.612;2022-12-18T17:25:09;-4.00;99.90
50162;DHT22;36061;48.116;11.612;2022-12-18T17:27:35;-4.00;99.90
50162;DHT22;36061;48.116;11.612;2022-12-18T17:30:01;-4.00;99.90
50162;DHT22;36061;48.116;11.612;2022-12-18T17:32:27;-4.00;99.90
50162;DHT22;36061;48.116;11.612;2022-12-18T17:34:53;-4.00;99.90
50162;DHT22;36061;48.116;11.612;2022-12-18T17:37:18;-3.90;99.90
50162;DHT22;36061;48.116;11.612;2022-12-18T17:39:44;-3.90;99.90
50162;DHT22;36061;48.116;11.612;2022-12-18T17:42:10;-3.90;99.90
50162;DHT22;36061;48.116;11.612;2022-12-18T17:44:36;-3.90;99.90
50162;DHT22;36061;48.116;11.612;2022-12-18T17:47:03;-3.80;99.90